Terminal Aerodrome Forecast
Issued by NWS Wichita, KS

Home | Current Version | Previous Version | Graphics & Text | Print | Product List | Glossary On
Versions: 1 2 3 4 5 6 7 8 9 10 11 12 13 14 15 16 17
000
FTUS43 KICT 271120
TAFICT
TAF
KICT 271120Z 2712/2812 17010KT P6SM SCT100 BKN200
     FM271600 18016G22KT P6SM FEW040 BKN200
     FM280600 17014KT P6SM VCTS SCT040CB BKN100=

USA.gov is the U.S. government's official web portal to all federal, state and local government web resources and services.